< < Back
Terminal Aerodrome Forecast


Current Version              Previous Versions:   1  2  3  4  5  6  7  8  9  

Terminal Aerodrome Forecast

633
FTUS44 KHUN 021720
TAFHSV
TAF
KHSV 021720Z 0218/0318 VRB03KT P6SM SCT030 OVC250
     FM031300 35005KT P6SM SCT050 BKN150=

Latest METAR

258
SAUS80 KWBC 030200 RRA
MTRHSV
METAR KHSV 030153Z 00000KT 10SM BKN200 26/23 A3002 RMK AO2 SLP159
T02610233


USA.gov is the U.S. government's official web portal to all federal, state and local government web resources and services.